sensor_id;sensor_type;location;lat;lon;timestamp;P1;durP1;ratioP1;P2;durP2;ratioP2
74335;SDS011;62755;-33.398;-70.572;2023-03-01T00:02:10;17.98;;;4.47;;
74335;SDS011;62755;-33.398;-70.572;2023-03-01T00:04:59;15.68;;;3.55;;
74335;SDS011;62755;-33.398;-70.572;2023-03-01T00:07:48;18.60;;;4.10;;
74335;SDS011;62755;-33.398;-70.572;2023-03-01T00:10:42;19.48;;;3.92;;
74335;SDS011;62755;-33.398;-70.572;2023-03-01T00:13:32;29.20;;;3.83;;
74335;SDS011;62755;-33.398;-70.572;2023-03-01T00:16:22;20.58;;;3.88;;
74335;SDS011;62755;-33.398;-70.572;2023-03-01T00:19:13;23.38;;;3.78;;
74335;SDS011;62755;-33.398;-70.572;2023-03-01T00:22:04;19.15;;;3.60;;
74335;SDS011;62755;-33.398;-70.572;2023-03-01T00:24:54;22.88;;;3.85;;
74335;SDS011;62755;-33.398;-70.572;2023-03-01T00:27:45;27.00;;;7.00;;
74335;SDS011;62755;-33.398;-70.572;2023-03-01T00:30:35;14.82;;;4.78;;
74335;SDS011;62755;-33.398;-70.572;2023-03-01T00:33:24;28.05;;;6.47;;
74335;SDS011;62755;-33.398;-70.572;2023-03-01T00:36:14;24.00;;;5.05;;
74335;SDS011;62755;-33.398;-70.572;2023-03-01T00:39:04;16.00;;;4.80;;
74335;SDS011;62755;-33.398;-70.572;2023-03-01T00:41:57;25.55;;;8.07;;
74335;SDS011;62755;-33.398;-70.572;2023-03-01T00:44:49;25.00;;;8.15;;
74335;SDS011;62755;-33.398;-70.572;2023-03-01T00:47:38;22.67;;;10.02;;
74335;SDS011;62755;-33.398;-70.572;2023-03-01T00:50:27;33.35;;;7.75;;
74335;SDS011;62755;-33.398;-70.572;2023-03-01T00:53:17;26.00;;;3.85;;
74335;SDS011;62755;-33.398;-70.572;2023-03-01T00:56:08;15.65;;;5.20;;
74335;SDS011;62755;-33.398;-70.572;2023-03-01T00:58:58;21.55;;;3.75;;
74335;SDS011;62755;-33.398;-70.572;2023-03-01T01:01:50;24.05;;;8.93;;
74335;SDS011;62755;-33.398;-70.572;2023-03-01T01:04:39;38.45;;;17.45;;
74335;SDS011;62755;-33.398;-70.572;2023-03-01T01:07:28;41.05;;;16.77;;
74335;SDS011;62755;-33.398;-70.572;2023-03-01T01:10:18;37.72;;;17.48;;
74335;SDS011;62755;-33.398;-70.572;2023-03-01T01:13:07;32.05;;;16.02;;
74335;SDS011;62755;-33.398;-70.572;2023-03-01T01:16:00;41.40;;;15.00;;
74335;SDS011;62755;-33.398;-70.572;2023-03-01T01:18:52;17.45;;;4.88;;
74335;SDS011;62755;-33.398;-70.572;2023-03-01T01:21:41;20.15;;;4.18;;
74335;SDS011;62755;-33.398;-70.572;2023-03-01T01:24:31;22.13;;;6.53;;
74335;SDS011;62755;-33.398;-70.572;2023-03-01T01:27:20;14.65;;;4.28;;
74335;SDS011;62755;-33.398;-70.572;2023-03-01T01:30:10;29.45;;;6.18;;
74335;SDS011;62755;-33.398;-70.572;2023-03-01T01:33:00;20.88;;;6.18;;
74335;SDS011;62755;-33.398;-70.572;2023-03-01T01:35:51;22.13;;;4.97;;
74335;SDS011;62755;-33.398;-70.572;2023-03-01T01:38:41;21.98;;;4.88;;
74335;SDS011;62755;-33.398;-70.572;2023-03-01T01:41:30;14.70;;;4.50;;
74335;SDS011;62755;-33.398;-70.572;2023-03-01T01:44:20;28.60;;;6.07;;
74335;SDS011;62755;-33.398;-70.572;2023-03-01T01:47:12;23.77;;;5.43;;
74335;SDS011;62755;-33.398;-70.572;2023-03-01T01:50:08;22.85;;;4.03;;
74335;SDS011;62755;-33.398;-70.572;2023-03-01T01:53:08;29.05;;;5.30;;
74335;SDS011;62755;-33.398;-70.572;2023-03-01T01:56:00;27.42;;;4.95;;
74335;SDS011;62755;-33.398;-70.572;2023-03-01T01:58:51;26.38;;;4.72;;
74335;SDS011;62755;-33.398;-70.572;2023-03-01T02:01:40;14.75;;;4.47;;
74335;SDS011;62755;-33.398;-70.572;2023-03-01T02:04:31;19.27;;;4.95;;
74335;SDS011;62755;-33.398;-70.572;2023-03-01T02:07:21;24.30;;;5.28;;
74335;SDS011;62755;-33.398;-70.572;2023-03-01T02:10:13;27.05;;;5.70;;
74335;SDS011;62755;-33.398;-70.572;2023-03-01T02:13:03;26.92;;;6.78;;
74335;SDS011;62755;-33.398;-70.572;2023-03-01T02:15:52;19.50;;;5.13;;
74335;SDS011;62755;-33.398;-70.572;2023-03-01T02:18:42;21.15;;;5.47;;
74335;SDS011;62755;-33.398;-70.572;2023-03-01T02:21:35;21.88;;;6.93;;
74335;SDS011;62755;-33.398;-70.572;2023-03-01T02:24:32;32.88;;;5.90;;
74335;SDS011;62755;-33.398;-70.572;2023-03-01T02:27:33;19.35;;;4.15;;
74335;SDS011;62755;-33.398;-70.572;2023-03-01T02:30:30;19.75;;;4.82;;
74335;SDS011;62755;-33.398;-70.572;2023-03-01T02:33:20;32.92;;;9.45;;
74335;SDS011;62755;-33.398;-70.572;2023-03-01T02:36:09;28.67;;;7.22;;
74335;SDS011;62755;-33.398;-70.572;2023-03-01T02:39:03;32.97;;;7.63;;
74335;SDS011;62755;-33.398;-70.572;2023-03-01T02:42:00;23.70;;;5.57;;
74335;SDS011;62755;-33.398;-70.572;2023-03-01T02:44:52;28.08;;;7.43;;
74335;SDS011;62755;-33.398;-70.572;2023-03-01T02:47:43;26.60;;;8.20;;
74335;SDS011;62755;-33.398;-70.572;2023-03-01T02:50:42;24.42;;;5.57;;
74335;SDS011;62755;-33.398;-70.572;2023-03-01T02:53:41;22.92;;;6.78;;
74335;SDS011;62755;-33.398;-70.572;2023-03-01T02:56:37;31.73;;;7.35;;
74335;SDS011;62755;-33.398;-70.572;2023-03-01T02:59:28;30.17;;;5.78;;
74335;SDS011;62755;-33.398;-70.572;2023-03-01T03:02:25;16.00;;;5.45;;
74335;SDS011;62755;-33.398;-70.572;2023-03-01T03:05:25;22.90;;;5.07;;
74335;SDS011;62755;-33.398;-70.572;2023-03-01T03:08:16;21.70;;;5.63;;
74335;SDS011;62755;-33.398;-70.572;2023-03-01T03:11:09;27.83;;;4.82;;
74335;SDS011;62755;-33.398;-70.572;2023-03-01T03:13:58;18.67;;;5.25;;
74335;SDS011;62755;-33.398;-70.572;2023-03-01T03:16:48;35.63;;;13.18;;
74335;SDS011;62755;-33.398;-70.572;2023-03-01T03:19:38;27.90;;;7.97;;
74335;SDS011;62755;-33.398;-70.572;2023-03-01T03:22:29;28.02;;;6.55;;
74335;SDS011;62755;-33.398;-70.572;2023-03-01T03:25:20;32.65;;;8.20;;
74335;SDS011;62755;-33.398;-70.572;2023-03-01T03:28:10;21.63;;;5.97;;
74335;SDS011;62755;-33.398;-70.572;2023-03-01T03:30:59;18.98;;;5.78;;
74335;SDS011;62755;-33.398;-70.572;2023-03-01T03:33:50;23.75;;;4.28;;
74335;SDS011;62755;-33.398;-70.572;2023-03-01T03:36:39;19.52;;;5.07;;
74335;SDS011;62755;-33.398;-70.572;2023-03-01T03:39:30;20.08;;;4.70;;
74335;SDS011;62755;-33.398;-70.572;2023-03-01T03:42:20;23.60;;;5.18;;
74335;SDS011;62755;-33.398;-70.572;2023-03-01T03:45:10;25.25;;;5.07;;
74335;SDS011;62755;-33.398;-70.572;2023-03-01T03:47:59;21.20;;;4.28;;
74335;SDS011;62755;-33.398;-70.572;2023-03-01T03:50:49;20.48;;;4.20;;
74335;SDS011;62755;-33.398;-70.572;2023-03-01T03:53:39;19.17;;;4.00;;
74335;SDS011;62755;-33.398;-70.572;2023-03-01T03:56:32;23.02;;;4.53;;
74335;SDS011;62755;-33.398;-70.572;2023-03-01T03:59:21;23.83;;;4.57;;
74335;SDS011;62755;-33.398;-70.572;2023-03-01T04:02:10;23.77;;;4.82;;
74335;SDS011;62755;-33.398;-70.572;2023-03-01T04:05:08;26.33;;;5.10;;
74335;SDS011;62755;-33.398;-70.572;2023-03-01T04:08:00;15.13;;;4.45;;
74335;SDS011;62755;-33.398;-70.572;2023-03-01T04:10:53;21.60;;;4.03;;
74335;SDS011;62755;-33.398;-70.572;2023-03-01T04:13:48;18.42;;;4.35;;
74335;SDS011;62755;-33.398;-70.572;2023-03-01T04:16:38;26.55;;;4.35;;
74335;SDS011;62755;-33.398;-70.572;2023-03-01T04:19:28;14.80;;;3.58;;
74335;SDS011;62755;-33.398;-70.572;2023-03-01T04:22:22;15.55;;;3.60;;
74335;SDS011;62755;-33.398;-70.572;2023-03-01T04:25:15;18.80;;;4.35;;
74335;SDS011;62755;-33.398;-70.572;2023-03-01T04:28:05;19.17;;;3.67;;
74335;SDS011;62755;-33.398;-70.572;2023-03-01T04:30:57;22.40;;;4.43;;
74335;SDS011;62755;-33.398;-70.572;2023-03-01T04:33:58;20.08;;;4.50;;
74335;SDS011;62755;-33.398;-70.572;2023-03-01T04:36:48;23.30;;;4.30;;
74335;SDS011;62755;-33.398;-70.572;2023-03-01T04:39:37;21.70;;;4.30;;
74335;SDS011;62755;-33.398;-70.572;2023-03-01T04:42:31;21.38;;;4.75;;
74335;SDS011;62755;-33.398;-70.572;2023-03-01T04:45:20;14.95;;;4.22;;
74335;SDS011;62755;-33.398;-70.572;2023-03-01T04:48:11;16.48;;;4.38;;
74335;SDS011;62755;-33.398;-70.572;2023-03-01T04:51:01;22.00;;;4.63;;
74335;SDS011;62755;-33.398;-70.572;2023-03-01T04:53:51;25.65;;;7.20;;
74335;SDS011;62755;-33.398;-70.572;2023-03-01T04:56:41;31.80;;;11.73;;
74335;SDS011;62755;-33.398;-70.572;2023-03-01T04:59:30;33.80;;;8.65;;
74335;SDS011;62755;-33.398;-70.572;2023-03-01T05:02:22;22.17;;;5.30;;
74335;SDS011;62755;-33.398;-70.572;2023-03-01T05:05:13;18.13;;;4.65;;
74335;SDS011;62755;-33.398;-70.572;2023-03-01T05:08:04;18.00;;;3.40;;
74335;SDS011;62755;-33.398;-70.572;2023-03-01T05:10:55;27.90;;;4.30;;
74335;SDS011;62755;-33.398;-70.572;2023-03-01T05:13:44;17.10;;;3.88;;
74335;SDS011;62755;-33.398;-70.572;2023-03-01T05:16:35;17.85;;;3.28;;
74335;SDS011;62755;-33.398;-70.572;2023-03-01T05:19:25;16.27;;;3.67;;
74335;SDS011;62755;-33.398;-70.572;2023-03-01T05:22:18;17.45;;;3.58;;
74335;SDS011;62755;-33.398;-70.572;2023-03-01T05:25:08;23.98;;;4.20;;
74335;SDS011;62755;-33.398;-70.572;2023-03-01T05:28:00;20.58;;;4.22;;
74335;SDS011;62755;-33.398;-70.572;2023-03-01T05:30:50;16.95;;;3.70;;
74335;SDS011;62755;-33.398;-70.572;2023-03-01T05:33:40;22.92;;;4.05;;
74335;SDS011;62755;-33.398;-70.572;2023-03-01T05:36:30;21.70;;;3.90;;
74335;SDS011;62755;-33.398;-70.572;2023-03-01T05:39:22;17.52;;;4.35;;
74335;SDS011;62755;-33.398;-70.572;2023-03-01T05:42:13;23.10;;;3.80;;
74335;SDS011;62755;-33.398;-70.572;2023-03-01T05:45:02;17.48;;;4.90;;
74335;SDS011;62755;-33.398;-70.572;2023-03-01T05:47:55;17.40;;;4.10;;
74335;SDS011;62755;-33.398;-70.572;2023-03-01T05:50:45;18.13;;;3.40;;
74335;SDS011;62755;-33.398;-70.572;2023-03-01T05:53:34;18.10;;;3.42;;
74335;SDS011;62755;-33.398;-70.572;2023-03-01T05:56:25;23.50;;;4.03;;
74335;SDS011;62755;-33.398;-70.572;2023-03-01T05:59:15;24.88;;;3.67;;
74335;SDS011;62755;-33.398;-70.572;2023-03-01T06:02:05;12.85;;;3.00;;
74335;SDS011;62755;-33.398;-70.572;2023-03-01T06:04:54;15.85;;;3.30;;
74335;SDS011;62755;-33.398;-70.572;2023-03-01T06:07:44;16.48;;;3.38;;
74335;SDS011;62755;-33.398;-70.572;2023-03-01T06:10:33;20.52;;;3.97;;
74335;SDS011;62755;-33.398;-70.572;2023-03-01T06:13:25;16.17;;;3.72;;
74335;SDS011;62755;-33.398;-70.572;2023-03-01T06:16:16;18.90;;;3.70;;
74335;SDS011;62755;-33.398;-70.572;2023-03-01T06:19:06;15.93;;;3.60;;
74335;SDS011;62755;-33.398;-70.572;2023-03-01T06:21:56;18.83;;;4.00;;
74335;SDS011;62755;-33.398;-70.572;2023-03-01T06:24:45;19.52;;;4.63;;
74335;SDS011;62755;-33.398;-70.572;2023-03-01T06:27:35;19.50;;;3.72;;
74335;SDS011;62755;-33.398;-70.572;2023-03-01T06:30:27;19.38;;;3.33;;
74335;SDS011;62755;-33.398;-70.572;2023-03-01T06:33:16;15.77;;;3.95;;
74335;SDS011;62755;-33.398;-70.572;2023-03-01T06:36:08;19.35;;;4.03;;
74335;SDS011;62755;-33.398;-70.572;2023-03-01T06:38:57;21.92;;;3.53;;
74335;SDS011;62755;-33.398;-70.572;2023-03-01T06:41:47;27.13;;;3.90;;
74335;SDS011;62755;-33.398;-70.572;2023-03-01T06:44:36;14.68;;;3.20;;
74335;SDS011;62755;-33.398;-70.572;2023-03-01T06:47:27;16.98;;;3.50;;
74335;SDS011;62755;-33.398;-70.572;2023-03-01T06:50:16;16.27;;;3.20;;
74335;SDS011;62755;-33.398;-70.572;2023-03-01T06:53:06;22.27;;;3.20;;
74335;SDS011;62755;-33.398;-70.572;2023-03-01T06:55:56;22.10;;;4.32;;
74335;SDS011;62755;-33.398;-70.572;2023-03-01T06:58:45;14.48;;;3.25;;
74335;SDS011;62755;-33.398;-70.572;2023-03-01T07:01:35;15.50;;;3.70;;
74335;SDS011;62755;-33.398;-70.572;2023-03-01T07:04:26;17.25;;;4.13;;
74335;SDS011;62755;-33.398;-70.572;2023-03-01T07:07:16;15.10;;;3.85;;
74335;SDS011;62755;-33.398;-70.572;2023-03-01T07:10:06;16.50;;;3.00;;
74335;SDS011;62755;-33.398;-70.572;2023-03-01T07:12:57;19.48;;;3.35;;
74335;SDS011;62755;-33.398;-70.572;2023-03-01T07:15:46;15.68;;;3.33;;
74335;SDS011;62755;-33.398;-70.572;2023-03-01T07:18:35;21.42;;;3.85;;
74335;SDS011;62755;-33.398;-70.572;2023-03-01T07:21:27;20.67;;;3.70;;
74335;SDS011;62755;-33.398;-70.572;2023-03-01T07:24:16;18.02;;;3.08;;
74335;SDS011;62755;-33.398;-70.572;2023-03-01T07:27:05;17.40;;;3.30;;
74335;SDS011;62755;-33.398;-70.572;2023-03-01T07:29:54;18.65;;;3.38;;
74335;SDS011;62755;-33.398;-70.572;2023-03-01T07:32:44;18.92;;;3.20;;
74335;SDS011;62755;-33.398;-70.572;2023-03-01T07:35:33;16.63;;;3.25;;
74335;SDS011;62755;-33.398;-70.572;2023-03-01T07:38:24;14.98;;;3.53;;
74335;SDS011;62755;-33.398;-70.572;2023-03-01T07:41:14;15.38;;;3.25;;
74335;SDS011;62755;-33.398;-70.572;2023-03-01T07:44:03;16.23;;;3.58;;
74335;SDS011;62755;-33.398;-70.572;2023-03-01T07:46:53;21.13;;;3.80;;
74335;SDS011;62755;-33.398;-70.572;2023-03-01T07:49:43;12.63;;;3.40;;
74335;SDS011;62755;-33.398;-70.572;2023-03-01T07:52:33;21.38;;;4.03;;
74335;SDS011;62755;-33.398;-70.572;2023-03-01T07:55:24;20.73;;;3.83;;
74335;SDS011;62755;-33.398;-70.572;2023-03-01T07:58:13;16.55;;;3.60;;
74335;SDS011;62755;-33.398;-70.572;2023-03-01T08:01:03;13.90;;;3.38;;
74335;SDS011;62755;-33.398;-70.572;2023-03-01T08:03:53;17.42;;;3.45;;
74335;SDS011;62755;-33.398;-70.572;2023-03-01T08:06:42;20.27;;;4.10;;
74335;SDS011;62755;-33.398;-70.572;2023-03-01T08:09:33;16.10;;;3.35;;
74335;SDS011;62755;-33.398;-70.572;2023-03-01T08:12:25;17.90;;;4.20;;
74335;SDS011;62755;-33.398;-70.572;2023-03-01T08:15:15;9.40;;;3.40;;
74335;SDS011;62755;-33.398;-70.572;2023-03-01T08:18:04;18.75;;;3.15;;
74335;SDS011;62755;-33.398;-70.572;2023-03-01T08:20:54;16.02;;;3.38;;
74335;SDS011;62755;-33.398;-70.572;2023-03-01T08:23:43;16.08;;;2.95;;
74335;SDS011;62755;-33.398;-70.572;2023-03-01T08:26:33;19.95;;;3.55;;
74335;SDS011;62755;-33.398;-70.572;2023-03-01T08:29:24;22.70;;;3.90;;
74335;SDS011;62755;-33.398;-70.572;2023-03-01T08:32:13;20.25;;;3.78;;
74335;SDS011;62755;-33.398;-70.572;2023-03-01T08:35:03;20.70;;;3.97;;
74335;SDS011;62755;-33.398;-70.572;2023-03-01T08:37:53;18.13;;;3.30;;
74335;SDS011;62755;-33.398;-70.572;2023-03-01T08:40:42;12.30;;;3.35;;
74335;SDS011;62755;-33.398;-70.572;2023-03-01T08:43:31;20.23;;;3.90;;
74335;SDS011;62755;-33.398;-70.572;2023-03-01T08:46:22;16.92;;;3.58;;
74335;SDS011;62755;-33.398;-70.572;2023-03-01T08:49:13;16.25;;;3.45;;
74335;SDS011;62755;-33.398;-70.572;2023-03-01T08:52:03;22.23;;;3.80;;
74335;SDS011;62755;-33.398;-70.572;2023-03-01T08:54:52;16.55;;;3.55;;
74335;SDS011;62755;-33.398;-70.572;2023-03-01T08:57:41;20.58;;;3.63;;
74335;SDS011;62755;-33.398;-70.572;2023-03-01T09:00:31;15.85;;;3.13;;
74335;SDS011;62755;-33.398;-70.572;2023-03-01T09:03:22;19.15;;;3.03;;
74335;SDS011;62755;-33.398;-70.572;2023-03-01T09:06:12;23.25;;;3.45;;
74335;SDS011;62755;-33.398;-70.572;2023-03-01T09:09:02;24.65;;;3.70;;
74335;SDS011;62755;-33.398;-70.572;2023-03-01T09:11:55;20.13;;;5.13;;
74335;SDS011;62755;-33.398;-70.572;2023-03-01T09:14:44;10.32;;;3.45;;
74335;SDS011;62755;-33.398;-70.572;2023-03-01T09:17:33;23.85;;;3.33;;
74335;SDS011;62755;-33.398;-70.572;2023-03-01T09:20:24;14.75;;;3.08;;
74335;SDS011;62755;-33.398;-70.572;2023-03-01T09:23:14;14.20;;;3.20;;
74335;SDS011;62755;-33.398;-70.572;2023-03-01T09:26:03;15.70;;;3.47;;
74335;SDS011;62755;-33.398;-70.572;2023-03-01T09:28:54;16.05;;;3.75;;
74335;SDS011;62755;-33.398;-70.572;2023-03-01T09:31:44;29.38;;;4.30;;
74335;SDS011;62755;-33.398;-70.572;2023-03-01T09:34:33;12.68;;;3.17;;
74335;SDS011;62755;-33.398;-70.572;2023-03-01T09:37:45;23.42;;;6.47;;
74335;SDS011;62755;-33.398;-70.572;2023-03-01T09:40:35;18.70;;;3.45;;
74335;SDS011;62755;-33.398;-70.572;2023-03-01T09:43:31;14.80;;;2.90;;
74335;SDS011;62755;-33.398;-70.572;2023-03-01T09:46:28;15.25;;;3.10;;
74335;SDS011;62755;-33.398;-70.572;2023-03-01T09:49:22;15.25;;;2.97;;
74335;SDS011;62755;-33.398;-70.572;2023-03-01T09:52:16;19.40;;;4.00;;
74335;SDS011;62755;-33.398;-70.572;2023-03-01T09:55:14;16.55;;;3.30;;
74335;SDS011;62755;-33.398;-70.572;2023-03-01T09:58:22;25.75;;;4.15;;
74335;SDS011;62755;-33.398;-70.572;2023-03-01T10:01:27;31.48;;;5.18;;
74335;SDS011;62755;-33.398;-70.572;2023-03-01T10:04:25;15.05;;;4.35;;
74335;SDS011;62755;-33.398;-70.572;2023-03-01T10:07:27;13.52;;;3.15;;
74335;SDS011;62755;-33.398;-70.572;2023-03-01T10:10:23;21.10;;;4.10;;
74335;SDS011;62755;-33.398;-70.572;2023-03-01T10:13:17;21.80;;;3.50;;
74335;SDS011;62755;-33.398;-70.572;2023-03-01T10:16:12;22.88;;;3.50;;
74335;SDS011;62755;-33.398;-70.572;2023-03-01T10:19:08;22.70;;;4.50;;
74335;SDS011;62755;-33.398;-70.572;2023-03-01T10:22:03;39.42;;;8.50;;
74335;SDS011;62755;-33.398;-70.572;2023-03-01T10:24:59;15.02;;;4.30;;
74335;SDS011;62755;-33.398;-70.572;2023-03-01T10:27:54;17.90;;;4.20;;
74335;SDS011;62755;-33.398;-70.572;2023-03-01T10:30:47;20.02;;;5.03;;
74335;SDS011;62755;-33.398;-70.572;2023-03-01T10:33:37;23.27;;;4.15;;
74335;SDS011;62755;-33.398;-70.572;2023-03-01T10:36:27;21.95;;;5.18;;
74335;SDS011;62755;-33.398;-70.572;2023-03-01T10:39:21;30.35;;;4.22;;
74335;SDS011;62755;-33.398;-70.572;2023-03-01T10:42:18;20.85;;;3.65;;
74335;SDS011;62755;-33.398;-70.572;2023-03-01T10:45:23;21.95;;;3.67;;
74335;SDS011;62755;-33.398;-70.572;2023-03-01T10:48:20;22.73;;;3.25;;
74335;SDS011;62755;-33.398;-70.572;2023-03-01T10:51:17;19.95;;;3.42;;
74335;SDS011;62755;-33.398;-70.572;2023-03-01T10:54:14;15.23;;;3.67;;
74335;SDS011;62755;-33.398;-70.572;2023-03-01T10:57:09;29.25;;;5.15;;
74335;SDS011;62755;-33.398;-70.572;2023-03-01T11:00:28;31.75;;;5.15;;
74335;SDS011;62755;-33.398;-70.572;2023-03-01T11:03:18;25.00;;;4.95;;
74335;SDS011;62755;-33.398;-70.572;2023-03-01T11:06:20;24.42;;;5.43;;
74335;SDS011;62755;-33.398;-70.572;2023-03-01T11:09:14;27.98;;;5.70;;
74335;SDS011;62755;-33.398;-70.572;2023-03-01T11:12:05;26.67;;;5.70;;
74335;SDS011;62755;-33.398;-70.572;2023-03-01T11:15:01;20.77;;;5.05;;
74335;SDS011;62755;-33.398;-70.572;2023-03-01T11:17:53;26.02;;;4.90;;
74335;SDS011;62755;-33.398;-70.572;2023-03-01T11:20:44;23.98;;;5.30;;
74335;SDS011;62755;-33.398;-70.572;2023-03-01T11:23:34;30.25;;;5.07;;
74335;SDS011;62755;-33.398;-70.572;2023-03-01T11:26:34;32.60;;;5.57;;
74335;SDS011;62755;-33.398;-70.572;2023-03-01T11:29:29;30.30;;;5.05;;
74335;SDS011;62755;-33.398;-70.572;2023-03-01T11:32:24;25.95;;;4.72;;
74335;SDS011;62755;-33.398;-70.572;2023-03-01T11:35:19;37.97;;;5.10;;
74335;SDS011;62755;-33.398;-70.572;2023-03-01T11:38:21;26.25;;;5.25;;
74335;SDS011;62755;-33.398;-70.572;2023-03-01T11:41:12;28.90;;;5.55;;
74335;SDS011;62755;-33.398;-70.572;2023-03-01T11:44:09;30.73;;;5.47;;
74335;SDS011;62755;-33.398;-70.572;2023-03-01T11:47:10;33.85;;;5.38;;
74335;SDS011;62755;-33.398;-70.572;2023-03-01T11:50:23;33.97;;;5.80;;
74335;SDS011;62755;-33.398;-70.572;2023-03-01T11:53:25;34.67;;;6.47;;
74335;SDS011;62755;-33.398;-70.572;2023-03-01T11:56:38;31.48;;;6.13;;
74335;SDS011;62755;-33.398;-70.572;2023-03-01T11:59:38;31.65;;;5.97;;
74335;SDS011;62755;-33.398;-70.572;2023-03-01T12:02:58;40.00;;;7.70;;
74335;SDS011;62755;-33.398;-70.572;2023-03-01T12:06:21;41.53;;;6.15;;
74335;SDS011;62755;-33.398;-70.572;2023-03-01T12:09:26;30.17;;;7.33;;
74335;SDS011;62755;-33.398;-70.572;2023-03-01T12:12:33;32.53;;;6.25;;
74335;SDS011;62755;-33.398;-70.572;2023-03-01T12:15:45;21.85;;;5.45;;
74335;SDS011;62755;-33.398;-70.572;2023-03-01T12:19:04;26.85;;;5.80;;
74335;SDS011;62755;-33.398;-70.572;2023-03-01T12:22:08;44.15;;;9.00;;
74335;SDS011;62755;-33.398;-70.572;2023-03-01T12:25:13;35.10;;;15.27;;
74335;SDS011;62755;-33.398;-70.572;2023-03-01T12:28:12;39.03;;;17.38;;
74335;SDS011;62755;-33.398;-70.572;2023-03-01T12:31:25;26.17;;;7.43;;
74335;SDS011;62755;-33.398;-70.572;2023-03-01T12:34:36;27.50;;;10.05;;
74335;SDS011;62755;-33.398;-70.572;2023-03-01T12:37:50;22.05;;;4.82;;
74335;SDS011;62755;-33.398;-70.572;2023-03-01T12:40:53;26.70;;;5.50;;
74335;SDS011;62755;-33.398;-70.572;2023-03-01T12:44:02;24.45;;;5.32;;
74335;SDS011;62755;-33.398;-70.572;2023-03-01T12:47:03;26.73;;;5.47;;
74335;SDS011;62755;-33.398;-70.572;2023-03-01T12:50:02;23.52;;;5.28;;
74335;SDS011;62755;-33.398;-70.572;2023-03-01T12:52:56;27.70;;;4.70;;
74335;SDS011;62755;-33.398;-70.572;2023-03-01T12:55:46;25.13;;;4.68;;
74335;SDS011;62755;-33.398;-70.572;2023-03-01T12:58:38;24.75;;;4.45;;
74335;SDS011;62755;-33.398;-70.572;2023-03-01T13:01:36;22.33;;;4.20;;
74335;SDS011;62755;-33.398;-70.572;2023-03-01T13:04:40;23.67;;;4.28;;
74335;SDS011;62755;-33.398;-70.572;2023-03-01T13:07:51;18.65;;;4.35;;
74335;SDS011;62755;-33.398;-70.572;2023-03-01T13:10:49;24.02;;;3.72;;
74335;SDS011;62755;-33.398;-70.572;2023-03-01T13:13:41;26.08;;;3.55;;
74335;SDS011;62755;-33.398;-70.572;2023-03-01T13:16:41;29.42;;;4.40;;
74335;SDS011;62755;-33.398;-70.572;2023-03-01T13:19:34;20.23;;;3.95;;
74335;SDS011;62755;-33.398;-70.572;2023-03-01T13:22:26;18.77;;;3.50;;
74335;SDS011;62755;-33.398;-70.572;2023-03-01T13:25:20;31.00;;;4.50;;
74335;SDS011;62755;-33.398;-70.572;2023-03-01T13:34:53;29.20;;;5.13;;
74335;SDS011;62755;-33.398;-70.572;2023-03-01T13:37:44;24.65;;;4.90;;
74335;SDS011;62755;-33.398;-70.572;2023-03-01T13:43:48;22.40;;;4.05;;
74335;SDS011;62755;-33.398;-70.572;2023-03-01T13:46:39;23.58;;;4.22;;
74335;SDS011;62755;-33.398;-70.572;2023-03-01T13:49:33;31.70;;;4.53;;
74335;SDS011;62755;-33.398;-70.572;2023-03-01T13:52:32;25.27;;;5.30;;
74335;SDS011;62755;-33.398;-70.572;2023-03-01T13:55:27;31.23;;;4.97;;
74335;SDS011;62755;-33.398;-70.572;2023-03-01T13:58:26;21.02;;;4.53;;
74335;SDS011;62755;-33.398;-70.572;2023-03-01T14:01:22;28.42;;;4.88;;
74335;SDS011;62755;-33.398;-70.572;2023-03-01T14:04:19;27.75;;;5.90;;
74335;SDS011;62755;-33.398;-70.572;2023-03-01T14:09:59;45.60;;;5.95;;
74335;SDS011;62755;-33.398;-70.572;2023-03-01T14:12:51;36.55;;;6.65;;
74335;SDS011;62755;-33.398;-70.572;2023-03-01T14:15:50;30.48;;;5.93;;
74335;SDS011;62755;-33.398;-70.572;2023-03-01T14:18:55;41.85;;;6.40;;
74335;SDS011;62755;-33.398;-70.572;2023-03-01T14:22:02;24.35;;;5.15;;
74335;SDS011;62755;-33.398;-70.572;2023-03-01T14:25:01;22.98;;;5.45;;
74335;SDS011;62755;-33.398;-70.572;2023-03-01T14:27:56;32.90;;;6.93;;
74335;SDS011;62755;-33.398;-70.572;2023-03-01T14:30:50;33.70;;;5.93;;
74335;SDS011;62755;-33.398;-70.572;2023-03-01T14:33:40;30.70;;;6.72;;
74335;SDS011;62755;-33.398;-70.572;2023-03-01T14:36:30;27.73;;;5.95;;
74335;SDS011;62755;-33.398;-70.572;2023-03-01T14:39:23;32.55;;;5.65;;
74335;SDS011;62755;-33.398;-70.572;2023-03-01T14:42:13;38.75;;;7.15;;
74335;SDS011;62755;-33.398;-70.572;2023-03-01T14:45:09;39.92;;;7.80;;
74335;SDS011;62755;-33.398;-70.572;2023-03-01T14:48:03;36.15;;;8.10;;
74335;SDS011;62755;-33.398;-70.572;2023-03-01T14:50:55;36.92;;;7.45;;
74335;SDS011;62755;-33.398;-70.572;2023-03-01T14:53:45;36.33;;;8.40;;
74335;SDS011;62755;-33.398;-70.572;2023-03-01T14:56:43;43.28;;;9.57;;
74335;SDS011;62755;-33.398;-70.572;2023-03-01T14:59:34;38.03;;;8.55;;
74335;SDS011;62755;-33.398;-70.572;2023-03-01T15:02:24;30.55;;;7.55;;
74335;SDS011;62755;-33.398;-70.572;2023-03-01T15:05:18;27.23;;;7.10;;
74335;SDS011;62755;-33.398;-70.572;2023-03-01T15:08:19;40.25;;;8.60;;
74335;SDS011;62755;-33.398;-70.572;2023-03-01T15:11:17;30.50;;;7.40;;
74335;SDS011;62755;-33.398;-70.572;2023-03-01T15:14:26;37.22;;;8.57;;
74335;SDS011;62755;-33.398;-70.572;2023-03-01T15:17:29;28.15;;;7.22;;
74335;SDS011;62755;-33.398;-70.572;2023-03-01T15:20:23;31.95;;;7.07;;
74335;SDS011;62755;-33.398;-70.572;2023-03-01T15:23:17;26.17;;;6.72;;
74335;SDS011;62755;-33.398;-70.572;2023-03-01T15:26:20;45.55;;;7.78;;
74335;SDS011;62755;-33.398;-70.572;2023-03-01T15:29:14;37.40;;;7.53;;
74335;SDS011;62755;-33.398;-70.572;2023-03-01T15:32:06;39.42;;;7.65;;
74335;SDS011;62755;-33.398;-70.572;2023-03-01T15:35:37;31.60;;;8.52;;
74335;SDS011;62755;-33.398;-70.572;2023-03-01T15:38:31;35.37;;;8.40;;
74335;SDS011;62755;-33.398;-70.572;2023-03-01T15:41:24;40.30;;;8.18;;
74335;SDS011;62755;-33.398;-70.572;2023-03-01T15:44:16;36.28;;;9.23;;
74335;SDS011;62755;-33.398;-70.572;2023-03-01T15:47:23;37.67;;;9.85;;
74335;SDS011;62755;-33.398;-70.572;2023-03-01T15:50:16;38.65;;;9.55;;
74335;SDS011;62755;-33.398;-70.572;2023-03-01T15:53:12;27.25;;;8.27;;
74335;SDS011;62755;-33.398;-70.572;2023-03-01T15:56:03;29.80;;;7.43;;
74335;SDS011;62755;-33.398;-70.572;2023-03-01T15:58:57;24.77;;;6.03;;
74335;SDS011;62755;-33.398;-70.572;2023-03-01T16:01:48;20.95;;;5.53;;
74335;SDS011;62755;-33.398;-70.572;2023-03-01T16:04:37;31.08;;;6.50;;
74335;SDS011;62755;-33.398;-70.572;2023-03-01T16:07:27;29.67;;;7.05;;
74335;SDS011;62755;-33.398;-70.572;2023-03-01T16:10:18;29.95;;;7.43;;
74335;SDS011;62755;-33.398;-70.572;2023-03-01T16:13:08;32.40;;;7.82;;
74335;SDS011;62755;-33.398;-70.572;2023-03-01T16:15:58;33.35;;;7.65;;
74335;SDS011;62755;-33.398;-70.572;2023-03-01T16:18:47;29.55;;;6.88;;
74335;SDS011;62755;-33.398;-70.572;2023-03-01T16:21:37;20.90;;;6.85;;
74335;SDS011;62755;-33.398;-70.572;2023-03-01T16:24:27;30.67;;;7.72;;
74335;SDS011;62755;-33.398;-70.572;2023-03-01T16:27:19;32.35;;;8.38;;
74335;SDS011;62755;-33.398;-70.572;2023-03-01T16:30:09;26.05;;;8.68;;
74335;SDS011;62755;-33.398;-70.572;2023-03-01T16:33:00;26.95;;;9.70;;
74335;SDS011;62755;-33.398;-70.572;2023-03-01T16:35:52;28.90;;;9.60;;
74335;SDS011;62755;-33.398;-70.572;2023-03-01T16:38:42;34.40;;;10.18;;